Time;durP1;ratioP1;P1;durP2;ratioP2;P2;SDS_P1;SDS_P2;PMS_P1;PMS_P2;Temp;Humidity;BMP_temperature;BMP_pressure;BME280_temperature;BME280_humidity;BME280_pressure;Samples;Min_cycle;Max_cycle;Signal;HPM_P1;HPM_P2
2023/07/23 00:00:14;;;;;;;7.47;2.95;;;19.00;99.90;;;;;;4163913;28;20637;-86
2023/07/23 00:02:15;;;;;;;6.40;2.90;;;18.90;99.90;;;;;;4180234;28;20174;-86
2023/07/23 00:04:15;;;;;;;7.93;3.05;;;18.90;99.90;;;;;;4147794;28;20676;-85
2023/07/23 00:06:17;;;;;;;7.03;3.33;;;18.90;99.90;;;;;;4163907;28;20243;-85
2023/07/23 00:08:17;;;;;;;7.57;3.40;;;18.80;99.90;;;;;;4147576;28;20224;-86
2023/07/23 00:10:18;;;;;;;9.18;3.00;;;19.00;99.90;;;;;;4163851;28;20645;-86
2023/07/23 00:12:19;;;;;;;9.63;3.08;;;18.90;99.90;;;;;;4147660;28;20180;-85
2023/07/23 00:14:19;;;;;;;13.73;3.08;;;18.80;99.90;;;;;;4163661;28;20177;-85
2023/07/23 00:16:20;;;;;;;6.50;2.80;;;18.80;99.90;;;;;;4163781;28;20207;-85
2023/07/23 00:18:21;;;;;;;5.57;2.55;;;18.70;99.90;;;;;;4163818;28;20656;-84
2023/07/23 00:20:21;;;;;;;6.28;3.03;;;18.80;99.90;;;;;;4147456;28;20208;-86
2023/07/23 00:22:22;;;;;;;8.13;3.35;;;18.80;99.90;;;;;;4163843;28;20207;-85
2023/07/23 00:24:23;;;;;;;7.53;2.80;;;18.60;99.90;;;;;;4147569;28;20199;-85
2023/07/23 00:26:24;;;;;;;12.13;3.10;;;18.60;99.90;;;;;;4163825;28;20176;-85
2023/07/23 00:28:25;;;;;;;8.55;2.67;;;18.60;99.90;;;;;;4165173;28;20579;-85
2023/07/23 00:30:26;;;;;;;4.47;2.60;;;18.60;99.90;;;;;;4147390;28;20169;-86
2023/07/23 00:32:27;;;;;;;10.15;3.15;;;18.40;99.90;;;;;;4147527;28;20181;-85
2023/07/23 00:34:28;;;;;;;6.13;2.58;;;18.60;99.90;;;;;;4147511;28;20161;-85
2023/07/23 00:36:29;;;;;;;8.50;3.08;;;18.70;99.90;;;;;;4163576;28;20298;-85
2023/07/23 00:38:30;;;;;;;8.43;3.05;;;18.80;99.90;;;;;;4163531;28;20287;-85
2023/07/23 00:40:30;;;;;;;7.22;3.03;;;19.00;99.90;;;;;;4147523;28;20177;-85
2023/07/23 00:42:31;;;;;;;10.25;3.33;;;19.00;99.90;;;;;;4147293;28;20264;-85
2023/07/23 00:44:32;;;;;;;7.03;2.95;;;19.00;99.90;;;;;;4163422;28;20169;-85
2023/07/23 00:46:32;;;;;;;9.48;3.03;;;18.80;99.90;;;;;;4163438;28;20164;-84
2023/07/23 00:48:33;;;;;;;9.75;2.95;;;18.60;99.90;;;;;;4147174;28;20236;-85
2023/07/23 00:50:34;;;;;;;7.18;2.97;;;18.30;99.90;;;;;;4146990;28;20165;-85
2023/07/23 00:52:36;;;;;;;12.23;3.25;;;18.30;99.90;;;;;;4163655;28;20263;-85
2023/07/23 00:54:37;;;;;;;9.55;3.10;;;18.20;99.90;;;;;;4165054;28;20195;-85
2023/07/23 00:56:39;;;;;;;10.15;2.95;;;18.10;99.90;;;;;;4165723;28;20271;-85
2023/07/23 00:58:40;;;;;;;5.38;2.58;;;17.90;99.90;;;;;;4166669;28;20184;-85
2023/07/23 01:00:41;;;;;;;11.05;2.75;;;17.90;99.90;;;;;;4166879;28;20688;-85
2023/07/23 01:02:42;;;;;;;12.63;3.65;;;17.90;99.90;;;;;;4166654;28;20160;-85
2023/07/23 01:04:43;;;;;;;9.10;2.50;;;17.90;99.90;;;;;;4166803;28;20191;-85
2023/07/23 01:06:45;;;;;;;5.40;2.60;;;17.90;99.90;;;;;;4166743;28;20236;-85
2023/07/23 01:08:46;;;;;;;16.17;2.88;;;17.90;99.90;;;;;;4166472;28;20192;-85
2023/07/23 01:10:47;;;;;;;9.48;3.08;;;18.20;99.90;;;;;;4183253;28;20568;-85
2023/07/23 01:12:51;;;;;;;9.88;3.28;;;18.20;99.90;;;;;;4150361;28;20177;-85
2023/07/23 01:14:52;;;;;;;24.55;3.25;;;18.20;99.90;;;;;;4166425;28;20174;-85
2023/07/23 01:16:52;;;;;;;7.22;2.47;;;18.30;99.90;;;;;;4166486;28;20307;-85
2023/07/23 01:18:55;;;;;;;5.75;2.72;;;18.40;99.90;;;;;;4167400;28;20222;-85
2023/07/23 01:20:56;;;;;;;10.80;2.30;;;18.50;99.90;;;;;;4182727;28;20179;-85
2023/07/23 01:22:56;;;;;;;7.47;2.42;;;18.50;99.90;;;;;;4182828;28;20176;-85
2023/07/23 01:24:57;;;;;;;11.32;2.85;;;18.40;99.90;;;;;;4166281;28;20668;-85
2023/07/23 01:26:58;;;;;;;5.65;2.65;;;18.40;99.90;;;;;;4149770;28;20279;-84
2023/07/23 01:28:59;;;;;;;6.00;2.35;;;18.50;99.90;;;;;;4167150;28;20188;-85
2023/07/23 01:30:59;;;;;;;6.63;2.35;;;18.50;99.90;;;;;;4166291;28;20180;-85
2023/07/23 01:33:00;;;;;;;9.13;2.58;;;18.50;99.90;;;;;;4166223;28;20266;-85
2023/07/23 01:35:09;;;;;;;8.93;2.17;;;18.40;99.90;;;;;;4166107;28;20208;-85
2023/07/23 01:37:10;;;;;;;16.42;2.90;;;18.50;99.90;;;;;;4149656;28;20215;-85
2023/07/23 01:39:11;;;;;;;6.45;2.35;;;18.50;99.90;;;;;;4166050;28;20211;-85
2023/07/23 01:41:12;;;;;;;8.27;2.40;;;18.60;99.90;;;;;;4149704;28;20177;-85
2023/07/23 01:43:13;;;;;;;8.82;2.55;;;18.80;99.90;;;;;;4149532;28;20165;-85
2023/07/23 01:45:14;;;;;;;7.50;2.60;;;18.80;99.90;;;;;;4149705;28;20193;-85
2023/07/23 01:47:14;;;;;;;4.93;2.25;;;18.70;99.90;;;;;;4149812;28;20737;-85
2023/07/23 01:49:15;;;;;;;12.73;2.40;;;18.80;99.90;;;;;;4149597;28;20189;-85
2023/07/23 01:51:16;;;;;;;11.00;2.70;;;18.80;99.90;;;;;;4165874;28;20661;-85
2023/07/23 01:53:17;;;;;;;10.93;2.70;;;18.80;99.90;;;;;;4166060;28;20196;-84
2023/07/23 01:55:18;;;;;;;6.30;2.28;;;18.80;99.90;;;;;;4149487;28;20217;-85
2023/07/23 01:57:18;;;;;;;4.25;2.20;;;18.80;99.90;;;;;;4165571;28;20303;-85
2023/07/23 01:59:19;;;;;;;7.38;2.63;;;18.60;99.90;;;;;;4165408;28;20683;-85
2023/07/23 02:01:21;;;;;;;5.90;2.20;;;18.70;99.90;;;;;;4149098;28;20222;-85
2023/07/23 02:03:21;;;;;;;5.28;2.75;;;18.60;99.90;;;;;;4182253;28;20168;-85
2023/07/23 02:05:22;;;;;;;10.18;2.72;;;18.70;99.90;;;;;;4165585;28;20188;-85
2023/07/23 02:07:23;;;;;;;7.88;2.10;;;18.70;99.90;;;;;;4164764;28;20712;-85
2023/07/23 02:09:23;;;;;;;4.97;2.70;;;18.80;99.90;;;;;;4165326;28;20596;-85
2023/07/23 02:11:24;;;;;;;12.63;2.65;;;18.80;99.90;;;;;;4165671;28;20168;-85
2023/07/23 02:13:25;;;;;;;5.78;2.40;;;18.70;99.90;;;;;;4165840;28;20208;-85
2023/07/23 02:15:26;;;;;;;17.38;2.72;;;18.60;99.90;;;;;;4165141;28;20168;-85
2023/07/23 02:17:26;;;;;;;7.35;2.35;;;18.70;99.90;;;;;;4165451;28;20655;-85
2023/07/23 02:19:27;;;;;;;12.18;2.50;;;18.70;99.90;;;;;;4165443;28;20181;-84
2023/07/23 02:21:28;;;;;;;10.55;2.90;;;18.70;99.90;;;;;;4165194;28;20560;-84
2023/07/23 02:23:29;;;;;;;11.63;2.33;;;18.60;99.90;;;;;;4165373;28;20180;-85
2023/07/23 02:25:29;;;;;;;5.57;2.63;;;18.60;99.90;;;;;;4165341;28;20675;-85
2023/07/23 02:27:31;;;;;;;8.02;2.33;;;18.60;99.90;;;;;;4167051;28;20220;-85
2023/07/23 02:29:32;;;;;;;9.32;2.60;;;18.60;99.90;;;;;;4166423;28;20193;-85
2023/07/23 02:31:33;;;;;;;13.93;2.63;;;18.50;99.90;;;;;;4165156;28;20287;-85
2023/07/23 02:33:34;;;;;;;12.88;2.45;;;18.40;99.90;;;;;;4148829;28;20585;-85
2023/07/23 02:35:36;;;;;;;13.15;2.60;;;18.30;99.90;;;;;;4166237;28;20534;-85
2023/07/23 02:37:37;;;;;;;8.20;2.92;;;18.30;99.90;;;;;;4165254;28;20218;-85
2023/07/23 02:39:38;;;;;;;13.52;2.50;;;18.30;99.90;;;;;;4165260;28;20184;-84
2023/07/23 02:41:39;;;;;;;9.18;2.78;;;18.40;99.90;;;;;;4148926;28;20177;-85
2023/07/23 02:43:40;;;;;;;9.50;2.75;;;18.40;99.90;;;;;;4148809;28;20204;-85
2023/07/23 02:45:40;;;;;;;4.30;2.10;;;18.60;99.90;;;;;;4181620;28;20175;-85
2023/07/23 02:47:41;;;;;;;6.45;2.33;;;18.40;99.90;;;;;;4148606;28;20176;-85
2023/07/23 02:49:42;;;;;;;9.13;2.60;;;18.40;99.90;;;;;;4148447;28;20197;-85
2023/07/23 02:51:42;;;;;;;7.97;2.55;;;18.50;99.90;;;;;;4166260;28;20639;-85
2023/07/23 02:53:43;;;;;;;11.52;2.83;;;18.60;99.90;;;;;;4164696;28;20648;-85
2023/07/23 02:55:44;;;;;;;7.68;2.17;;;18.50;99.90;;;;;;4148447;28;20173;-85
2023/07/23 02:57:45;;;;;;;8.30;2.92;;;18.60;99.90;;;;;;4164630;28;20557;-85
2023/07/23 02:59:46;;;;;;;8.52;2.40;;;18.50;99.90;;;;;;4164675;28;20227;-85
2023/07/23 03:01:46;;;;;;;7.05;2.50;;;18.60;99.90;;;;;;4164729;28;20179;-85
2023/07/23 03:03:47;;;;;;;4.18;2.17;;;18.40;99.90;;;;;;4148189;28;20168;-85
2023/07/23 03:05:48;;;;;;;9.82;2.20;;;18.30;99.90;;;;;;4164871;28;20266;-85
2023/07/23 03:07:49;;;;;;;9.63;2.15;;;18.40;99.90;;;;;;4164612;28;20165;-83
2023/07/23 03:09:49;;;;;;;12.95;2.30;;;18.40;99.90;;;;;;4164469;28;20200;-84
2023/07/23 03:11:50;;;;;;;4.47;2.00;;;18.30;99.90;;;;;;4164585;28;20175;-83
2023/07/23 03:13:51;;;;;;;5.90;2.10;;;18.20;99.90;;;;;;4164281;28;20178;-83
2023/07/23 03:15:51;;;;;;;14.40;2.80;;;18.10;99.90;;;;;;4164280;28;20178;-84
2023/07/23 03:17:52;;;;;;;5.53;2.10;;;18.10;99.90;;;;;;4164536;28;20184;-84
2023/07/23 03:19:53;;;;;;;10.68;2.55;;;18.10;99.90;;;;;;4164751;28;20188;-84
2023/07/23 03:21:53;;;;;;;10.82;2.70;;;18.20;99.90;;;;;;4164226;28;20180;-83
2023/07/23 03:23:54;;;;;;;16.33;2.50;;;18.20;99.90;;;;;;4164373;28;20173;-84
2023/07/23 03:25:55;;;;;;;7.25;2.25;;;18.20;99.90;;;;;;4165687;28;20703;-84
2023/07/23 03:27:59;;;;;;;7.63;2.13;;;18.20;99.90;;;;;;4164182;28;20188;-84
2023/07/23 03:30:00;;;;;;;6.85;2.38;;;18.20;99.90;;;;;;4164156;28;20203;-84
2023/07/23 03:32:00;;;;;;;9.45;3.17;;;18.30;99.90;;;;;;4165666;28;20625;-83
2023/07/23 03:34:01;;;;;;;7.03;2.38;;;18.50;99.90;;;;;;4165341;28;20207;-84
2023/07/23 03:36:02;;;;;;;5.00;2.03;;;18.50;99.90;;;;;;4164317;28;20255;-83
2023/07/23 03:38:03;;;;;;;5.43;2.17;;;18.50;99.90;;;;;;4164159;28;20179;-84
2023/07/23 03:40:04;;;;;;;6.43;2.28;;;18.50;99.90;;;;;;4164178;28;20196;-84
2023/07/23 03:42:06;;;;;;;12.40;2.70;;;18.40;99.90;;;;;;4163591;28;20188;-84
2023/07/23 03:44:07;;;;;;;5.18;2.15;;;18.60;99.90;;;;;;4180669;28;20167;-84
2023/07/23 03:46:08;;;;;;;6.63;2.38;;;18.40;99.90;;;;;;4147778;28;20284;-84
2023/07/23 03:48:08;;;;;;;8.85;2.78;;;18.40;99.90;;;;;;4164112;28;20172;-83
2023/07/23 03:50:09;;;;;;;4.90;2.20;;;18.40;99.90;;;;;;4163810;28;20316;-84
2023/07/23 03:52:10;;;;;;;9.38;2.92;;;18.50;99.90;;;;;;4180583;28;20167;-84
2023/07/23 03:54:11;;;;;;;4.38;2.35;;;18.30;99.90;;;;;;4164076;28;20168;-84
2023/07/23 03:56:11;;;;;;;4.82;2.30;;;18.20;99.90;;;;;;4147283;28;20284;-84
2023/07/23 03:58:12;;;;;;;4.07;2.25;;;18.10;99.90;;;;;;4163758;28;20184;-84
2023/07/23 04:00:13;;;;;;;3.50;2.15;;;18.10;99.90;;;;;;4165099;28;20617;-84
2023/07/23 04:02:14;;;;;;;4.43;2.42;;;18.00;99.90;;;;;;4164245;28;20211;-84
2023/07/23 04:04:15;;;;;;;7.22;2.45;;;18.10;99.90;;;;;;4147462;28;20630;-83
2023/07/23 04:06:15;;;;;;;4.00;2.10;;;18.20;99.90;;;;;;4147622;28;20554;-84
2023/07/23 04:08:16;;;;;;;6.60;2.28;;;18.10;99.90;;;;;;4147547;28;20541;-83
2023/07/23 04:10:17;;;;;;;10.68;2.42;;;18.20;99.90;;;;;;4180592;28;20324;-84
2023/07/23 04:12:17;;;;;;;9.15;2.30;;;18.00;99.90;;;;;;4163707;28;20259;-84
2023/07/23 04:14:18;;;;;;;5.35;2.10;;;18.10;99.90;;;;;;4147209;28;20292;-83
2023/07/23 04:16:19;;;;;;;4.57;1.95;;;18.00;99.90;;;;;;4165199;28;20242;-84
2023/07/23 04:18:20;;;;;;;5.20;2.17;;;18.00;99.90;;;;;;4164006;28;20343;-84
2023/07/23 04:20:20;;;;;;;4.93;1.88;;;17.90;99.90;;;;;;4163866;28;20174;-84
2023/07/23 04:22:21;;;;;;;8.90;2.30;;;17.90;99.90;;;;;;4164968;28;20176;-84
2023/07/23 04:24:22;;;;;;;8.82;2.28;;;18.00;99.90;;;;;;4163621;28;20172;-84
2023/07/23 04:26:26;;;;;;;6.00;2.05;;;18.00;99.90;;;;;;4147493;28;20277;-84
2023/07/23 04:28:26;;;;;;;5.93;2.17;;;18.00;99.90;;;;;;4147373;28;20176;-84
2023/07/23 04:30:32;;;;;;;6.07;2.13;;;18.20;99.90;;;;;;4163871;28;20172;-83
2023/07/23 04:32:33;;;;;;;3.67;2.08;;;18.20;99.90;;;;;;4150839;28;20271;-84
2023/07/23 04:34:34;;;;;;;6.20;2.22;;;18.30;99.90;;;;;;4167218;28;20175;-84
2023/07/23 04:36:34;;;;;;;8.80;2.40;;;18.30;99.90;;;;;;4183311;28;20203;-83
2023/07/23 04:38:36;;;;;;;4.50;2.28;;;18.20;99.90;;;;;;4167025;28;20196;-84
2023/07/23 04:40:37;;;;;;;6.55;2.45;;;18.10;99.90;;;;;;4150541;28;20218;-84
2023/07/23 04:42:37;;;;;;;7.35;2.50;;;18.10;99.90;;;;;;4167027;28;20203;-84
2023/07/23 04:44:38;;;;;;;5.10;2.65;;;18.00;99.90;;;;;;4166670;28;20224;-84
2023/07/23 04:46:39;;;;;;;6.55;2.53;;;18.00;99.90;;;;;;4150206;28;20347;-84
2023/07/23 04:48:40;;;;;;;5.47;2.47;;;18.00;99.90;;;;;;4150450;28;20279;-84
2023/07/23 04:50:40;;;;;;;11.77;2.65;;;18.00;99.90;;;;;;4166778;28;20180;-84
2023/07/23 04:52:41;;;;;;;8.32;3.03;;;18.30;99.90;;;;;;4166949;28;20160;-84
2023/07/23 04:54:42;;;;;;;6.43;2.38;;;18.20;99.90;;;;;;4150198;28;20181;-84
2023/07/23 04:56:43;;;;;;;9.68;2.65;;;18.10;99.90;;;;;;4168067;28;20287;-84
2023/07/23 04:58:44;;;;;;;6.75;2.85;;;18.10;99.90;;;;;;4166418;28;20208;-84
2023/07/23 05:00:44;;;;;;;6.75;3.20;;;18.10;99.90;;;;;;4167876;28;20196;-84
2023/07/23 05:02:45;;;;;;;5.45;2.67;;;18.10;99.90;;;;;;4166575;28;20172;-84
2023/07/23 05:04:46;;;;;;;5.15;2.63;;;18.10;99.90;;;;;;4167975;28;20172;-84
2023/07/23 05:06:47;;;;;;;9.73;3.00;;;18.00;99.90;;;;;;4150071;28;20176;-84
2023/07/23 05:08:48;;;;;;;6.45;2.60;;;17.90;99.90;;;;;;4167768;28;20671;-84
2023/07/23 05:10:49;;;;;;;9.20;2.85;;;17.80;99.90;;;;;;4166437;28;20168;-84
2023/07/23 05:12:49;;;;;;;6.60;3.20;;;17.90;99.90;;;;;;4149775;28;20169;-84
2023/07/23 05:14:50;;;;;;;8.15;2.95;;;17.90;99.90;;;;;;4166326;28;20274;-85
2023/07/23 05:16:51;;;;;;;9.80;3.55;;;17.90;99.90;;;;;;4166337;28;20219;-84
2023/07/23 05:18:51;;;;;;;7.57;3.28;;;17.90;99.90;;;;;;4149939;28;20251;-84
2023/07/23 05:20:52;;;;;;;7.90;3.10;;;18.10;99.90;;;;;;4166237;28;20506;-84
2023/07/23 05:22:55;;;;;;;6.78;3.28;;;18.10;99.90;;;;;;4166613;28;20176;-84
2023/07/23 05:24:55;;;;;;;10.15;3.30;;;18.00;99.90;;;;;;4167633;28;20524;-84
2023/07/23 05:26:56;;;;;;;9.93;3.60;;;18.00;99.90;;;;;;4166248;28;20258;-84
2023/07/23 05:28:57;;;;;;;7.65;3.90;;;17.90;99.90;;;;;;4182417;28;20206;-84
2023/07/23 05:30:58;;;;;;;5.75;3.90;;;17.90;99.90;;;;;;4149821;28;20224;-84
2023/07/23 05:32:58;;;;;;;9.25;4.50;;;18.00;99.90;;;;;;4166187;28;20203;-84
2023/07/23 05:34:59;;;;;;;12.80;3.78;;;18.00;99.90;;;;;;4149861;28;20585;-84
2023/07/23 05:37:00;;;;;;;10.68;4.10;;;17.90;99.90;;;;;;4165999;28;20196;-84
2023/07/23 05:39:00;;;;;;;6.53;4.00;;;17.80;99.90;;;;;;4165969;28;20231;-84
2023/07/23 05:41:01;;;;;;;16.33;4.30;;;17.70;99.90;;;;;;4149516;28;20573;-84
2023/07/23 05:43:13;;;;;;;11.98;4.47;;;17.80;99.90;;;;;;4164894;28;20183;-84
2023/07/23 05:45:14;;;;;;;5.82;3.72;;;17.80;99.90;;;;;;4166103;28;20168;-85
2023/07/23 05:47:14;;;;;;;11.93;4.45;;;17.80;99.90;;;;;;4149450;28;20200;-84
2023/07/23 05:49:15;;;;;;;8.02;4.10;;;17.90;99.90;;;;;;4149568;28;20531;-84
2023/07/23 05:51:16;;;;;;;7.95;4.63;;;17.90;99.90;;;;;;4165781;28;20187;-84
2023/07/23 05:53:17;;;;;;;11.13;4.68;;;17.90;99.90;;;;;;4167088;28;20163;-84
2023/07/23 05:55:18;;;;;;;6.95;4.43;;;17.90;99.90;;;;;;4165865;28;20211;-84
2023/07/23 05:57:18;;;;;;;13.48;5.30;;;17.80;99.90;;;;;;4165877;28;20207;-84
2023/07/23 05:59:19;;;;;;;8.35;4.60;;;17.50;99.90;;;;;;4165465;28;20188;-84
2023/07/23 06:01:20;;;;;;;9.00;4.45;;;17.30;99.90;;;;;;4149294;28;20188;-84
2023/07/23 06:03:20;;;;;;;8.23;4.95;;;17.40;99.90;;;;;;4149250;28;20169;-84
2023/07/23 06:05:21;;;;;;;10.55;5.03;;;17.40;99.90;;;;;;4165873;28;20267;-83
2023/07/23 06:07:22;;;;;;;8.15;4.70;;;17.30;99.90;;;;;;4167177;28;20176;-84
2023/07/23 06:09:23;;;;;;;7.32;5.20;;;17.10;99.90;;;;;;4166778;28;20529;-83
2023/07/23 06:11:23;;;;;;;9.07;5.50;;;16.90;99.90;;;;;;4149325;28;20211;-84
2023/07/23 06:13:24;;;;;;;12.77;5.22;;;16.80;99.90;;;;;;4165642;28;20194;-84
2023/07/23 06:15:25;;;;;;;9.30;5.32;;;17.00;99.90;;;;;;4149124;28;20188;-84
2023/07/23 06:17:25;;;;;;;11.32;5.60;;;17.00;99.90;;;;;;4181905;28;20595;-84
2023/07/23 06:19:26;;;;;;;8.85;5.28;;;17.00;99.90;;;;;;4149174;28;20603;-84
2023/07/23 06:21:27;;;;;;;10.57;5.90;;;17.00;99.90;;;;;;4181984;28;20175;-84
2023/07/23 06:23:28;;;;;;;8.60;5.70;;;16.90;99.90;;;;;;4165556;28;20215;-84
2023/07/23 06:25:28;;;;;;;8.25;5.60;;;16.70;99.90;;;;;;4149129;28;20179;-84
2023/07/23 06:27:29;;;;;;;10.70;5.70;;;16.60;99.90;;;;;;4165182;28;20187;-84
2023/07/23 06:29:30;;;;;;;8.98;5.97;;;16.70;99.90;;;;;;4148712;28;20232;-84
2023/07/23 06:31:30;;;;;;;11.93;6.30;;;17.00;99.90;;;;;;4149124;28;20511;-84
2023/07/23 06:33:31;;;;;;;13.75;6.38;;;16.90;99.90;;;;;;4165407;28;20179;-84
2023/07/23 06:35:37;;;;;;;9.95;6.38;;;16.70;99.90;;;;;;4165380;28;20164;-84
2023/07/23 06:37:40;;;;;;;11.32;7.07;;;16.60;99.90;;;;;;4148684;28;20208;-84
2023/07/23 06:39:41;;;;;;;9.35;6.15;;;16.70;99.90;;;;;;4148707;28;20228;-84
2023/07/23 06:41:41;;;;;;;11.30;6.38;;;16.60;99.90;;;;;;4165307;28;20176;-84
2023/07/23 06:43:43;;;;;;;9.90;6.38;;;16.40;99.90;;;;;;4164996;28;20172;-84
2023/07/23 06:45:45;;;;;;;10.80;6.97;;;16.20;99.90;;;;;;4165015;28;20176;-84
2023/07/23 06:47:45;;;;;;;10.32;6.32;;;16.20;99.90;;;;;;4165060;28;20242;-84
2023/07/23 06:49:46;;;;;;;9.93;6.13;;;16.10;99.90;;;;;;4165063;28;20188;-84
2023/07/23 06:51:47;;;;;;;9.98;6.75;;;16.00;99.90;;;;;;4166241;28;20222;-84
2023/07/23 06:53:47;;;;;;;10.30;6.47;;;16.00;99.90;;;;;;4148363;28;20256;-84
2023/07/23 06:56:03;;;;;;;8.35;5.65;;;15.90;99.90;;;;;;4164899;28;20226;-84
2023/07/23 06:58:05;;;;;;;13.65;6.25;;;16.00;99.90;;;;;;4148854;28;20239;-84
2023/07/23 07:00:07;;;;;;;9.30;6.22;;;16.10;99.90;;;;;;4148443;28;20197;-84
2023/07/23 07:02:08;;;;;;;12.25;5.97;;;16.20;99.90;;;;;;4148263;28;20641;-84
2023/07/23 07:04:09;;;;;;;12.10;6.45;;;16.30;99.90;;;;;;4148529;28;20176;-84
2023/07/23 07:06:09;;;;;;;12.68;6.30;;;16.40;99.90;;;;;;4148369;28;20171;-84
2023/07/23 07:08:10;;;;;;;11.63;5.88;;;16.40;99.90;;;;;;4148392;28;20177;-85
2023/07/23 07:10:11;;;;;;;9.45;5.55;;;16.50;99.90;;;;;;4148318;28;20688;-84
2023/07/23 07:12:11;;;;;;;8.98;5.55;;;16.50;99.90;;;;;;4148356;28;20224;-84
2023/07/23 07:14:12;;;;;;;10.20;5.63;;;16.40;99.90;;;;;;4164520;28;20179;-84
2023/07/23 07:16:13;;;;;;;8.88;5.80;;;16.30;99.90;;;;;;4148042;28;20514;-84
2023/07/23 07:18:14;;;;;;;8.60;5.88;;;16.30;99.90;;;;;;4164563;28;20230;-84
2023/07/23 07:20:15;;;;;;;11.35;6.40;;;16.30;99.90;;;;;;4148228;28;20224;-84
2023/07/23 07:22:16;;;;;;;9.30;5.55;;;16.40;99.90;;;;;;4180829;28;20233;-83
2023/07/23 07:24:17;;;;;;;9.48;5.38;;;16.40;99.90;;;;;;4164511;28;20624;-84
2023/07/23 07:26:18;;;;;;;9.50;5.72;;;16.30;99.90;;;;;;4147898;28;20303;-84
2023/07/23 07:28:19;;;;;;;8.90;5.93;;;16.30;99.90;;;;;;4165375;28;20645;-84
2023/07/23 07:30:19;;;;;;;8.82;5.88;;;16.50;99.90;;;;;;4164093;28;20172;-84
2023/07/23 07:32:20;;;;;;;9.90;5.82;;;16.60;99.90;;;;;;4165692;28;20250;-84
2023/07/23 07:34:21;;;;;;;9.77;5.68;;;16.60;99.90;;;;;;4165575;28;20168;-85
2023/07/23 07:36:21;;;;;;;8.63;5.35;;;16.50;99.90;;;;;;4147759;28;20200;-84
2023/07/23 07:38:23;;;;;;;9.82;5.95;;;16.60;99.90;;;;;;4147528;28;20181;-83
2023/07/23 07:40:23;;;;;;;9.13;4.97;;;16.80;99.90;;;;;;4164155;28;20533;-84
2023/07/23 07:42:24;;;;;;;8.27;5.72;;;16.70;99.90;;;;;;4164335;28;20176;-84
2023/07/23 07:44:25;;;;;;;8.48;5.13;;;16.50;99.90;;;;;;4147566;28;20169;-84
2023/07/23 07:46:26;;;;;;;10.30;5.57;;;16.70;99.90;;;;;;4164310;28;20172;-84
2023/07/23 07:48:27;;;;;;;10.07;5.78;;;16.60;99.90;;;;;;4165145;28;20172;-84
2023/07/23 07:50:28;;;;;;;7.15;4.95;;;16.60;99.90;;;;;;4164102;28;20206;-84
2023/07/23 07:52:28;;;;;;;8.10;5.75;;;16.80;99.90;;;;;;4180738;28;20172;-84
2023/07/23 07:54:29;;;;;;;9.57;4.82;;;16.70;99.90;;;;;;4163933;28;20263;-84
2023/07/23 07:56:30;;;;;;;8.50;5.13;;;16.80;99.90;;;;;;4147434;28;20193;-83
2023/07/23 07:58:32;;;;;;;9.57;5.63;;;16.90;99.90;;;;;;4163429;28;20208;-84
2023/07/23 08:00:33;;;;;;;8.43;5.10;;;17.00;99.90;;;;;;4164414;28;20520;-84
2023/07/23 08:02:34;;;;;;;8.43;4.63;;;17.10;99.90;;;;;;4165436;28;20180;-84
2023/07/23 08:04:35;;;;;;;8.95;5.40;;;17.10;99.90;;;;;;4163884;28;20171;-84
2023/07/23 08:06:37;;;;;;;7.65;4.43;;;17.10;99.90;;;;;;4163242;28;20164;-83
2023/07/23 08:08:40;;;;;;;5.65;4.25;;;17.10;99.90;;;;;;4163844;28;20191;-84
2023/07/23 08:10:41;;;;;;;8.95;4.68;;;17.00;99.90;;;;;;4147728;28;20208;-84
2023/07/23 08:12:43;;;;;;;7.10;4.70;;;17.00;99.90;;;;;;4180332;28;20171;-84
2023/07/23 08:14:44;;;;;;;6.82;4.43;;;17.00;99.90;;;;;;4147590;28;20204;-84
2023/07/23 08:16:47;;;;;;;6.70;4.50;;;16.90;99.90;;;;;;4147265;28;20274;-84
2023/07/23 08:18:48;;;;;;;8.38;4.72;;;17.10;99.90;;;;;;4148704;28;20684;-85
2023/07/23 08:20:49;;;;;;;8.80;5.00;;;16.90;99.90;;;;;;4164014;28;20172;-84
2023/07/23 08:22:50;;;;;;;8.23;4.85;;;16.90;99.90;;;;;;4163979;28;20167;-84
2023/07/23 08:24:51;;;;;;;7.13;4.55;;;16.90;99.90;;;;;;4163848;28;20172;-84
2023/07/23 08:26:55;;;;;;;6.97;4.78;;;16.80;99.90;;;;;;4163797;28;20222;-84
2023/07/23 08:29:01;;;;;;;6.68;4.68;;;16.90;99.90;;;;;;4148071;28;20192;-84
2023/07/23 08:31:02;;;;;;;7.55;4.85;;;16.80;99.90;;;;;;4163767;28;20198;-84
2023/07/23 08:33:02;;;;;;;8.00;5.00;;;17.00;99.90;;;;;;4147582;28;20201;-84
2023/07/23 08:35:04;;;;;;;6.50;4.63;;;17.00;99.90;;;;;;4163829;28;20246;-84
2023/07/23 08:37:07;;;;;;;8.05;4.63;;;17.10;99.90;;;;;;4164771;28;20220;-84
2023/07/23 08:39:08;;;;;;;6.00;4.45;;;17.20;99.90;;;;;;4147667;28;20189;-83
2023/07/23 08:41:34;;;;;;;8.40;4.68;;;17.30;99.90;;;;;;4163896;28;20207;-84
2023/07/23 08:44:00;;;;;;;6.45;4.00;;;17.40;99.90;;;;;;4163873;28;20259;-84
2023/07/23 08:46:09;;;;;;;7.55;4.55;;;17.70;99.90;;;;;;4163564;28;20177;-85
2023/07/23 08:48:18;;;;;;;6.60;3.95;;;17.60;99.90;;;;;;4163627;28;20180;-84
2023/07/23 08:50:19;;;;;;;9.35;4.72;;;17.50;99.90;;;;;;4147279;28;20212;-84
2023/07/23 08:52:21;;;;;;;9.48;4.68;;;17.50;99.90;;;;;;4163637;28;20579;-84
2023/07/23 08:54:22;;;;;;;7.65;4.68;;;17.60;99.90;;;;;;4179732;28;20164;-84
2023/07/23 08:56:22;;;;;;;7.28;4.10;;;17.60;99.90;;;;;;4163573;28;20200;-83
2023/07/23 08:58:23;;;;;;;7.55;4.75;;;17.60;99.90;;;;;;4163628;28;20172;-84
2023/07/23 09:00:27;;;;;;;8.00;4.70;;;17.50;99.90;;;;;;4163666;28;20226;-84
2023/07/23 09:02:28;;;;;;;8.95;4.85;;;17.60;99.90;;;;;;4163985;28;20179;-84
2023/07/23 09:04:29;;;;;;;7.32;4.57;;;17.70;99.90;;;;;;4163897;28;20173;-84
2023/07/23 09:06:31;;;;;;;9.27;4.90;;;17.70;99.90;;;;;;4163439;28;20199;-84
2023/07/23 09:08:35;;;;;;;7.15;4.88;;;17.80;99.90;;;;;;4163273;28;20184;-84
2023/07/23 09:10:35;;;;;;;9.07;4.22;;;18.10;99.90;;;;;;4146934;28;20189;-83
2023/07/23 09:12:40;;;;;;;7.85;4.63;;;18.40;99.90;;;;;;4146906;28;20620;-84
2023/07/23 09:14:45;;;;;;;7.22;4.18;;;18.50;99.90;;;;;;4146768;28;20177;-84
2023/07/23 09:16:48;;;;;;;7.32;4.03;;;18.60;99.90;;;;;;4180416;28;20277;-84
2023/07/23 09:18:49;;;;;;;6.93;3.88;;;18.60;99.90;;;;;;4166338;28;20195;-84
2023/07/23 09:20:50;;;;;;;9.77;4.47;;;18.60;99.90;;;;;;4150048;28;20173;-85
2023/07/23 09:22:51;;;;;;;7.53;3.85;;;18.40;99.90;;;;;;4166211;28;20176;-85
2023/07/23 09:24:59;;;;;;;6.38;3.83;;;18.40;99.90;;;;;;4182807;28;20180;-84
2023/07/23 09:27:03;;;;;;;7.43;3.90;;;18.70;99.90;;;;;;4149762;28;20664;-84
2023/07/23 09:29:08;;;;;;;6.75;4.53;;;18.50;99.90;;;;;;4166212;28;20188;-84
2023/07/23 09:31:10;;;;;;;20.60;4.85;;;18.50;99.90;;;;;;4166315;28;20176;-84
2023/07/23 09:33:12;;;;;;;9.32;3.88;;;18.70;99.90;;;;;;4149990;28;20323;-85
2023/07/23 09:35:13;;;;;;;8.93;4.00;;;18.70;99.90;;;;;;4166240;28;20172;-84
2023/07/23 09:37:13;;;;;;;5.88;3.55;;;18.70;99.90;;;;;;4165990;28;20204;-84
2023/07/23 09:39:14;;;;;;;10.68;3.72;;;18.60;99.90;;;;;;4166009;28;20596;-84
2023/07/23 09:41:15;;;;;;;6.80;3.72;;;18.60;99.90;;;;;;4166144;28;20259;-84
2023/07/23 09:43:15;;;;;;;7.15;3.28;;;18.80;99.90;;;;;;4149844;28;20165;-84
2023/07/23 09:45:16;;;;;;;7.80;4.00;;;19.10;99.90;;;;;;4149486;28;20188;-84
2023/07/23 09:47:24;;;;;;;5.88;3.80;;;19.00;99.90;;;;;;4149627;28;20189;-84
2023/07/23 09:51:56;;;;;;;9.07;3.47;;;19.10;99.90;;;;;;4152284;28;20176;-85
2023/07/23 09:54:00;;;;;;;5.93;3.58;;;19.30;99.90;;;;;;4165775;28;20172;-84
2023/07/23 09:56:02;;;;;;;6.38;3.00;;;19.30;99.90;;;;;;4165882;28;20174;-84
2023/07/23 09:58:05;;;;;;;6.07;3.30;;;19.40;99.90;;;;;;4165875;28;20179;-84
2023/07/23 10:00:07;;;;;;;7.43;3.65;;;19.70;99.90;;;;;;4181995;28;20274;-84
2023/07/23 10:02:15;;;;;;;6.15;3.40;;;19.90;99.90;;;;;;4167247;28;20266;-85
2023/07/23 10:04:17;;;;;;;7.28;3.78;;;20.40;99.90;;;;;;4149587;28;20177;-84
2023/07/23 10:06:21;;;;;;;11.13;3.50;;;20.30;99.90;;;;;;4165752;28;20179;-84
2023/07/23 10:08:23;;;;;;;7.90;3.25;;;20.20;99.90;;;;;;4165643;28;20734;-84
2023/07/23 10:10:23;;;;;;;8.90;3.33;;;20.10;99.90;;;;;;4165867;28;20164;-84
2023/07/23 10:12:24;;;;;;;5.90;3.30;;;20.00;99.90;;;;;;4149354;28;20181;-84
2023/07/23 10:14:25;;;;;;;7.85;3.85;;;20.10;99.90;;;;;;4181915;28;20175;-84
2023/07/23 10:16:33;;;;;;;6.68;3.47;;;20.20;99.90;;;;;;4165455;28;20231;-84
2023/07/23 10:18:37;;;;;;;6.65;3.50;;;20.40;99.90;;;;;;4149080;28;20199;-84
2023/07/23 10:20:39;;;;;;;5.45;3.58;;;20.60;99.90;;;;;;4148935;28;20173;-84
2023/07/23 10:22:43;;;;;;;5.60;3.50;;;20.50;99.90;;;;;;4165512;28;20230;-84
2023/07/23 10:24:51;;;;;;;7.40;3.50;;;20.70;99.90;;;;;;4165404;28;20179;-84
2023/07/23 10:26:54;;;;;;;5.40;3.13;;;20.80;99.90;;;;;;4148706;28;20279;-84
2023/07/23 10:29:08;;;;;;;8.45;3.35;;;21.00;99.90;;;;;;4164582;28;20207;-84
2023/07/23 10:31:23;;;;;;;6.22;3.65;;;20.80;99.90;;;;;;4165210;28;20180;-85
2023/07/23 10:33:24;;;;;;;6.40;2.97;;;20.90;99.90;;;;;;4165249;28;20168;-84